createdAt,value
2018-12-17T00:00:22.316Z,51.00
2018-12-17T00:01:22.452Z,55.10
2018-12-17T00:02:37.989Z,57.80
2018-12-17T00:03:22.740Z,69.30
2018-12-17T00:04:22.910Z,67.50
2018-12-17T00:05:23.059Z,57.60
2018-12-17T00:06:24.774Z,52.30
2018-12-17T00:07:23.288Z,54.70
2018-12-17T00:08:23.412Z,55.40
2018-12-17T00:09:23.552Z,58.40
2018-12-17T00:10:23.676Z,57.40
2018-12-17T00:11:23.836Z,52.30
2018-12-17T00:12:23.937Z,54.20
2018-12-17T00:13:24.095Z,51.60
2018-12-17T00:14:24.208Z,54.80
2018-12-17T00:15:24.333Z,56.00
2018-12-17T00:16:24.462Z,52.70
2018-12-17T00:17:24.594Z,49.50
2018-12-17T00:18:24.722Z,49.20
2018-12-17T00:19:24.847Z,52.90
2018-12-17T00:20:24.994Z,52.00
2018-12-17T00:21:25.162Z,51.80
2018-12-17T00:22:25.321Z,53.00
2018-12-17T00:23:25.448Z,52.40
2018-12-17T00:24:25.575Z,50.90
2018-12-17T00:25:25.713Z,63.90
2018-12-17T00:26:28.498Z,58.10
2018-12-17T00:27:26.004Z,48.30
2018-12-17T00:28:26.132Z,50.30
2018-12-17T00:29:26.273Z,47.90
2018-12-17T00:30:26.397Z,55.30
2018-12-17T00:31:26.524Z,50.60
2018-12-17T00:32:27.436Z,51.90
2018-12-17T00:34:59.356Z,48.80
2018-12-17T00:35:59.470Z,46.80
2018-12-17T00:36:59.600Z,49.10
2018-12-17T00:37:59.726Z,49.10
2018-12-17T00:38:59.875Z,50.90
2018-12-17T00:40:00.047Z,53.40
2018-12-17T00:41:00.049Z,52.00
2018-12-17T00:42:00.174Z,52.20
2018-12-17T00:43:00.319Z,49.00
2018-12-17T00:44:16.252Z,56.20
2018-12-17T00:45:00.632Z,57.60
2018-12-17T00:46:00.758Z,51.40
2018-12-17T00:47:00.887Z,50.50
2018-12-17T00:48:01.026Z,51.50
2018-12-17T00:49:01.143Z,51.90
2018-12-17T00:50:01.271Z,48.80
2018-12-17T00:51:01.493Z,48.50
2018-12-17T00:52:01.540Z,45.40
2018-12-17T00:53:01.670Z,45.40
2018-12-17T00:54:01.797Z,48.20
2018-12-17T00:55:01.937Z,48.00
2018-12-17T00:56:02.061Z,47.10
2018-12-17T00:57:02.187Z,48.10
2018-12-17T00:58:02.310Z,48.20
2018-12-17T00:59:02.449Z,46.10
2018-12-17T01:00:02.567Z,49.50
2018-12-17T01:01:03.622Z,47.00
2018-12-17T01:02:02.790Z,48.40
2018-12-17T01:03:02.916Z,49.00
2018-12-17T01:04:03.040Z,49.40
2018-12-17T01:05:03.173Z,51.10
2018-12-17T01:06:03.311Z,60.80
2018-12-17T01:07:03.423Z,56.90
2018-12-17T01:08:03.560Z,54.20
2018-12-17T01:09:03.688Z,55.30
2018-12-17T01:10:03.832Z,51.00
2018-12-17T01:11:03.963Z,54.20
2018-12-17T01:12:04.095Z,51.50
2018-12-17T01:13:04.222Z,49.10
2018-12-17T01:14:04.352Z,52.90
2018-12-17T01:15:04.481Z,50.90
2018-12-17T01:16:04.606Z,50.20
2018-12-17T01:17:04.738Z,49.20
2018-12-17T01:18:04.860Z,50.50
2018-12-17T01:19:05.003Z,55.00
2018-12-17T01:20:05.147Z,48.50
2018-12-17T01:21:05.274Z,50.10
2018-12-17T01:22:05.398Z,48.50
2018-12-17T01:23:05.527Z,51.40
2018-12-17T01:24:05.654Z,47.90
2018-12-17T01:25:05.786Z,50.40
2018-12-17T01:26:05.933Z,52.40
2018-12-17T01:27:06.059Z,61.10
2018-12-17T01:28:06.188Z,60.40
2018-12-17T01:29:06.326Z,51.90
2018-12-17T01:30:06.480Z,54.60
2018-12-17T01:31:06.598Z,50.80
2018-12-17T01:32:06.727Z,47.70
2018-12-17T01:33:06.859Z,51.50
2018-12-17T01:34:07.016Z,55.60
2018-12-17T01:35:07.146Z,62.70
2018-12-17T01:36:07.272Z,56.00
2018-12-17T01:37:07.467Z,52.30
2018-12-17T01:38:07.537Z,49.80
2018-12-17T01:39:07.665Z,51.20
2018-12-17T01:40:07.782Z,48.90
2018-12-17T01:41:07.923Z,49.60
2018-12-17T01:42:08.083Z,49.40
2018-12-17T01:43:08.208Z,50.90
2018-12-17T01:44:08.336Z,49.40
2018-12-17T01:45:08.486Z,49.60
2018-12-17T01:46:08.619Z,47.40
2018-12-17T01:47:08.767Z,52.10
2018-12-17T01:48:08.878Z,51.20
2018-12-17T01:49:09.007Z,48.40
2018-12-17T01:50:09.182Z,50.40
2018-12-17T01:51:09.265Z,46.90
2018-12-17T01:52:09.401Z,48.80
2018-12-17T01:53:09.526Z,50.00
2018-12-17T01:54:09.668Z,51.80
2018-12-17T01:55:09.794Z,61.20
2018-12-17T01:56:09.919Z,60.70
2018-12-17T01:57:10.052Z,55.10
2018-12-17T01:58:10.176Z,47.80
2018-12-17T01:59:10.306Z,51.10
2018-12-17T02:00:10.437Z,49.10
2018-12-17T02:01:10.563Z,47.90
2018-12-17T02:02:10.765Z,41.60
2018-12-17T02:03:10.763Z,43.20
2018-12-17T02:04:10.971Z,43.20
2018-12-17T02:05:11.018Z,40.80
2018-12-17T02:06:11.151Z,41.00
2018-12-17T02:07:11.278Z,42.90
2018-12-17T02:08:11.410Z,43.60
2018-12-17T02:09:11.536Z,44.30
2018-12-17T02:10:11.659Z,41.70
2018-12-17T02:11:11.792Z,42.10
2018-12-17T02:12:11.921Z,39.10
2018-12-17T02:13:12.049Z,42.00
2018-12-17T02:14:12.175Z,38.20
2018-12-17T02:15:12.379Z,36.70
2018-12-17T02:16:12.465Z,41.90
2018-12-17T02:17:12.636Z,42.00
2018-12-17T02:18:12.763Z,40.40
2018-12-17T02:19:12.894Z,43.80
2018-12-17T02:20:13.023Z,45.20
2018-12-17T02:21:13.149Z,43.40
2018-12-17T02:22:13.279Z,47.10
2018-12-17T02:23:13.428Z,44.50
2018-12-17T02:24:13.553Z,44.00
2018-12-17T02:25:13.678Z,44.10
2018-12-17T02:26:13.804Z,49.20
2018-12-17T02:27:13.948Z,47.50
2018-12-17T02:28:14.150Z,48.50
2018-12-17T02:29:14.201Z,46.50
2018-12-17T02:30:14.370Z,47.30
2018-12-17T02:31:14.491Z,48.40
2018-12-17T02:32:14.619Z,51.80
2018-12-17T02:33:14.746Z,47.70
2018-12-17T02:34:14.888Z,48.80
2018-12-17T02:35:15.008Z,46.30
2018-12-17T02:36:15.133Z,48.60
2018-12-17T02:37:15.258Z,47.70
2018-12-17T02:38:15.406Z,47.00
2018-12-17T02:39:15.596Z,46.40
2018-12-17T02:40:15.597Z,44.20
2018-12-17T02:41:15.728Z,46.30
2018-12-17T02:42:15.876Z,47.30
2018-12-17T02:43:15.996Z,44.50
2018-12-17T02:44:16.133Z,47.00
2018-12-17T02:45:16.258Z,46.90
2018-12-17T02:46:16.407Z,45.50
2018-12-17T02:47:16.534Z,48.10
2018-12-17T02:48:16.661Z,47.30
2018-12-17T02:49:16.791Z,47.70
2018-12-17T02:50:16.918Z,48.00
2018-12-17T02:51:17.037Z,51.30
2018-12-17T02:52:17.168Z,49.10
2018-12-17T02:53:17.301Z,47.00
2018-12-17T02:54:17.417Z,48.00
2018-12-17T02:55:17.545Z,47.20
2018-12-17T02:56:17.673Z,44.80
2018-12-17T02:57:17.801Z,44.20
2018-12-17T02:58:17.926Z,44.10
2018-12-17T02:59:18.058Z,45.20
2018-12-17T03:00:18.181Z,50.90
2018-12-17T03:01:18.309Z,43.80
2018-12-17T03:02:18.437Z,45.10
2018-12-17T03:03:18.572Z,44.10
2018-12-17T03:04:18.699Z,45.40
2018-12-17T03:05:18.831Z,44.30
2018-12-17T03:06:18.968Z,43.60
2018-12-17T03:07:19.094Z,46.90
2018-12-17T03:08:19.220Z,47.10
2018-12-17T03:09:19.344Z,50.20
2018-12-17T03:10:19.478Z,49.30
2018-12-17T03:11:19.605Z,51.40
2018-12-17T03:12:19.736Z,45.70
2018-12-17T03:13:19.861Z,48.20
2018-12-17T03:14:19.991Z,46.30
2018-12-17T03:15:20.127Z,51.90
2018-12-17T03:16:20.271Z,48.60
2018-12-17T03:17:20.400Z,45.90
2018-12-17T03:18:20.526Z,50.60
2018-12-17T03:19:20.656Z,53.80
2018-12-17T03:20:20.807Z,53.60
2018-12-17T03:21:30.473Z,50.30
2018-12-17T03:22:21.091Z,51.00
2018-12-17T03:23:21.218Z,50.50
2018-12-17T03:24:21.357Z,49.30
2018-12-17T03:25:21.534Z,48.70
2018-12-17T03:26:21.668Z,49.50
2018-12-17T03:27:21.786Z,54.20
2018-12-17T03:28:21.938Z,53.90
2018-12-17T03:29:22.052Z,52.30
2018-12-17T03:30:22.196Z,52.80
2018-12-17T03:31:22.318Z,52.00
2018-12-17T03:32:22.471Z,52.90
2018-12-17T03:33:22.582Z,52.70
2018-12-17T03:34:22.710Z,51.60
2018-12-17T03:35:22.844Z,52.10
2018-12-17T03:36:22.992Z,48.70
2018-12-17T03:37:23.151Z,49.90
2018-12-17T03:38:23.274Z,49.60
2018-12-17T03:39:23.413Z,47.00
2018-12-17T03:40:23.550Z,48.70
2018-12-17T03:41:23.694Z,49.90
2018-12-17T03:42:23.819Z,48.50
2018-12-17T03:43:23.952Z,50.20
2018-12-17T03:44:24.098Z,49.40
2018-12-17T03:45:24.226Z,46.30
2018-12-17T03:46:24.351Z,49.20
2018-12-17T03:47:24.485Z,48.50
2018-12-17T03:48:24.623Z,47.20
2018-12-17T03:49:24.744Z,47.80
2018-12-17T03:50:24.879Z,46.30
2018-12-17T03:51:25.005Z,46.00
2018-12-17T03:52:25.131Z,48.00
2018-12-17T03:53:25.257Z,48.50
2018-12-17T03:54:25.386Z,46.60
2018-12-17T03:55:25.511Z,45.40
2018-12-17T03:56:25.643Z,43.80
2018-12-17T03:57:25.770Z,46.40
2018-12-17T03:58:25.901Z,44.80
2018-12-17T03:59:26.032Z,46.70
2018-12-17T04:00:26.175Z,46.30
2018-12-17T04:01:26.302Z,46.60
2018-12-17T04:02:26.428Z,47.20
2018-12-17T04:03:26.556Z,43.40
2018-12-17T04:04:26.685Z,44.90
2018-12-17T04:05:26.816Z,46.80
2018-12-17T04:06:26.946Z,45.70
2018-12-17T04:07:27.064Z,46.50
2018-12-17T04:08:27.193Z,43.60
2018-12-17T04:09:27.318Z,47.30
2018-12-17T04:10:27.450Z,45.30
2018-12-17T04:11:27.582Z,46.40
2018-12-17T04:12:27.705Z,47.20
2018-12-17T04:13:27.834Z,51.70
2018-12-17T04:14:27.958Z,47.10
2018-12-17T04:15:28.096Z,48.10
2018-12-17T04:16:28.219Z,49.00
2018-12-17T04:17:28.360Z,45.90
2018-12-17T04:18:28.491Z,46.80
2018-12-17T04:19:28.620Z,51.40
2018-12-17T04:20:28.752Z,50.00
2018-12-17T04:21:28.882Z,44.40
2018-12-17T04:22:29.093Z,47.60
2018-12-17T04:23:36.871Z,47.50
2018-12-17T04:24:29.258Z,47.10
2018-12-17T04:25:29.376Z,48.20
2018-12-17T04:26:29.531Z,49.60
2018-12-17T04:27:45.440Z,46.20
2018-12-17T04:28:29.812Z,48.30
2018-12-17T04:29:29.946Z,53.10
2018-12-17T04:30:30.079Z,46.80
2018-12-17T04:31:31.236Z,44.50
2018-12-17T04:32:30.366Z,49.10
2018-12-17T04:33:30.514Z,45.00
2018-12-17T04:34:30.640Z,47.10
2018-12-17T04:35:30.765Z,47.60
2018-12-17T04:36:30.893Z,48.90
2018-12-17T04:37:31.021Z,48.00
2018-12-17T04:38:31.178Z,48.60
2018-12-17T04:39:31.298Z,46.70
2018-12-17T04:40:31.441Z,52.40
2018-12-17T04:41:31.562Z,52.90
2018-12-17T04:42:31.717Z,51.00
2018-12-17T04:43:31.888Z,48.70
2018-12-17T04:44:32.019Z,50.60
2018-12-17T04:45:32.145Z,51.80
2018-12-17T04:46:32.318Z,53.30
2018-12-17T04:47:32.442Z,48.60
2018-12-17T04:48:32.563Z,48.40
2018-12-17T04:49:32.695Z,48.30
2018-12-17T04:50:32.842Z,46.50
2018-12-17T04:51:32.977Z,49.80
2018-12-17T04:52:33.109Z,49.70
2018-12-17T04:53:33.233Z,48.70
2018-12-17T04:54:33.365Z,51.50
2018-12-17T04:55:33.489Z,50.50
2018-12-17T04:56:33.617Z,49.80
2018-12-17T04:57:33.743Z,46.60
2018-12-17T04:58:33.897Z,50.40
2018-12-17T04:59:34.012Z,48.30
2018-12-17T05:00:34.142Z,47.80
2018-12-17T05:01:34.271Z,47.40
2018-12-17T05:02:34.407Z,47.60
2018-12-17T05:03:41.375Z,49.70
2018-12-17T05:04:34.622Z,49.60
2018-12-17T05:05:34.764Z,50.70
2018-12-17T05:06:34.916Z,50.60
2018-12-17T05:07:35.040Z,51.20
2018-12-17T05:08:35.175Z,51.10
2018-12-17T05:09:35.300Z,52.40
2018-12-17T05:10:35.424Z,51.50
2018-12-17T05:11:36.299Z,46.90
2018-12-17T05:12:35.710Z,47.50
2018-12-17T05:13:35.836Z,51.90
2018-12-17T05:14:35.968Z,45.90
2018-12-17T05:15:36.093Z,48.10
2018-12-17T05:16:36.216Z,54.30
2018-12-17T05:17:36.347Z,49.90
2018-12-17T05:18:36.469Z,51.50
2018-12-17T05:19:36.608Z,51.50
2018-12-17T05:20:36.728Z,49.80
2018-12-17T05:21:36.858Z,49.70
2018-12-17T05:22:36.989Z,50.60
2018-12-17T05:23:37.117Z,47.90
2018-12-17T05:24:37.242Z,48.70
2018-12-17T05:25:37.379Z,49.40
2018-12-17T05:26:37.522Z,49.70
2018-12-17T05:27:37.638Z,47.50
2018-12-17T05:28:37.767Z,50.70
2018-12-17T05:29:37.892Z,50.50
2018-12-17T05:30:38.021Z,47.80
2018-12-17T05:31:38.218Z,51.80
2018-12-17T05:32:38.281Z,49.70
2018-12-17T05:33:38.404Z,50.60
2018-12-17T05:34:38.532Z,49.80
2018-12-17T05:35:38.660Z,53.50
2018-12-17T05:36:38.786Z,53.10
2018-12-17T05:37:38.924Z,52.40
2018-12-17T05:38:39.043Z,52.00
2018-12-17T05:39:39.169Z,51.10
2018-12-17T05:40:39.299Z,51.90
2018-12-17T05:41:39.424Z,51.10
2018-12-17T05:42:40.315Z,48.90
2018-12-17T05:43:39.711Z,44.70
2018-12-17T05:44:39.840Z,47.70
2018-12-17T05:45:39.964Z,50.00
2018-12-17T05:46:40.089Z,50.50
2018-12-17T05:47:40.217Z,51.60
2018-12-17T05:48:40.344Z,50.70
2018-12-17T05:49:40.490Z,48.10
2018-12-17T05:50:40.619Z,49.90
2018-12-17T05:51:40.745Z,48.70
2018-12-17T05:52:40.876Z,46.60
2018-12-17T05:53:41.003Z,52.70
2018-12-17T05:54:41.169Z,51.60
2018-12-17T05:55:41.261Z,50.20
2018-12-17T05:56:41.386Z,53.70
2018-12-17T05:57:41.516Z,48.50
2018-12-17T05:58:41.645Z,48.20
2018-12-17T05:59:41.782Z,51.40
2018-12-17T06:00:41.905Z,52.60
2018-12-17T06:01:42.037Z,48.60
2018-12-17T06:02:42.207Z,43.80
2018-12-17T06:03:42.333Z,44.90
2018-12-17T06:04:42.464Z,47.20
2018-12-17T06:05:42.588Z,48.90
2018-12-17T06:06:42.729Z,47.00
2018-12-17T06:07:42.855Z,46.60
2018-12-17T06:08:43.822Z,46.90
2018-12-17T06:09:43.119Z,44.00
2018-12-17T06:10:43.244Z,44.00
2018-12-17T06:11:43.370Z,42.60
2018-12-17T06:12:43.495Z,42.50
2018-12-17T06:13:43.660Z,42.80
2018-12-17T06:14:43.778Z,45.00
2018-12-17T06:15:43.911Z,45.80
2018-12-17T06:16:44.040Z,46.20
2018-12-17T06:17:44.205Z,45.40
2018-12-17T06:20:16.497Z,42.00
2018-12-17T06:21:16.627Z,43.50
2018-12-17T06:22:16.759Z,44.20
2018-12-17T06:23:16.904Z,48.80
2018-12-17T06:24:17.028Z,45.80
2018-12-17T06:25:17.157Z,48.20
2018-12-17T06:26:17.293Z,52.70
2018-12-17T06:27:17.445Z,53.60
2018-12-17T06:28:25.452Z,52.60
2018-12-17T06:29:17.698Z,51.60
2018-12-17T06:30:17.827Z,55.20
2018-12-17T06:31:17.979Z,59.60
2018-12-17T06:32:19.108Z,56.00
2018-12-17T06:33:18.238Z,54.00
2018-12-17T06:34:18.364Z,54.50
2018-12-17T06:35:18.514Z,53.10
2018-12-17T06:36:18.715Z,51.70
2018-12-17T06:37:18.726Z,52.10
2018-12-17T06:38:18.857Z,46.90
2018-12-17T06:39:19.021Z,52.30
2018-12-17T06:40:19.145Z,53.10
2018-12-17T06:41:19.270Z,56.00
2018-12-17T06:42:19.393Z,49.50
2018-12-17T06:43:19.551Z,52.90
2018-12-17T06:44:19.797Z,49.70
2018-12-17T06:45:19.797Z,51.80
2018-12-17T06:46:19.926Z,48.40
2018-12-17T06:47:20.069Z,49.50
2018-12-17T06:48:20.238Z,48.40
2018-12-17T06:49:20.364Z,51.00
2018-12-17T06:50:20.497Z,50.30
2018-12-17T06:51:20.649Z,50.10
2018-12-17T06:52:20.778Z,51.40
2018-12-17T06:53:20.900Z,49.60
2018-12-17T06:54:21.024Z,51.20
2018-12-17T06:55:21.173Z,52.00
2018-12-17T06:56:21.295Z,48.10
2018-12-17T06:57:21.429Z,54.20
2018-12-17T06:58:21.555Z,49.70
2018-12-17T06:59:21.710Z,51.10
2018-12-17T07:00:21.828Z,48.00
2018-12-17T07:01:21.958Z,51.40
2018-12-17T07:02:22.088Z,50.30
2018-12-17T07:03:22.219Z,46.30
2018-12-17T07:04:22.392Z,49.90
2018-12-17T07:05:22.514Z,49.00
2018-12-17T07:06:22.644Z,45.80
2018-12-17T07:07:22.793Z,43.70
2018-12-17T07:08:22.911Z,42.80
2018-12-17T07:09:23.750Z,43.60
2018-12-17T07:10:23.197Z,36.90
2018-12-17T07:11:23.315Z,39.80
2018-12-17T07:12:23.442Z,40.60
2018-12-17T07:13:23.571Z,37.00
2018-12-17T07:14:23.715Z,37.10
2018-12-17T07:15:23.896Z,40.00
2018-12-17T07:16:24.021Z,40.40
2018-12-17T07:17:24.151Z,40.10
2018-12-17T07:18:24.285Z,37.80
2018-12-17T07:19:48.652Z,34.60
2018-12-17T07:20:24.523Z,38.70
2018-12-17T07:21:24.656Z,39.90
2018-12-17T07:22:24.793Z,37.40
2018-12-17T07:23:24.924Z,39.40
2018-12-17T07:24:25.051Z,38.80
2018-12-17T07:25:25.199Z,41.70
2018-12-17T07:26:25.335Z,40.00
2018-12-17T07:27:25.465Z,41.60
2018-12-17T07:28:25.587Z,42.90
2018-12-17T07:29:25.737Z,41.00
2018-12-17T07:30:25.859Z,42.90
2018-12-17T07:31:25.986Z,42.90
2018-12-17T07:32:26.119Z,43.20
2018-12-17T07:33:26.257Z,47.00
2018-12-17T07:34:34.429Z,42.60
2018-12-17T07:35:26.556Z,44.20
2018-12-17T07:36:26.689Z,45.70
2018-12-17T07:37:26.829Z,44.00
2018-12-17T07:38:26.998Z,43.20
2018-12-17T07:40:58.827Z,48.20
2018-12-17T07:41:58.953Z,43.20
2018-12-17T07:42:59.085Z,44.10
2018-12-17T07:43:59.206Z,45.40
2018-12-17T07:44:59.333Z,46.70
2018-12-17T07:45:59.461Z,43.00
2018-12-17T07:46:59.592Z,38.40
2018-12-17T07:47:59.719Z,43.90
2018-12-17T07:48:59.847Z,42.10
2018-12-17T07:49:59.972Z,41.50
2018-12-17T07:51:00.106Z,41.60
2018-12-17T07:52:00.232Z,41.40
2018-12-17T07:53:00.362Z,39.80
2018-12-17T07:54:00.487Z,44.40
2018-12-17T07:55:00.614Z,42.10
2018-12-17T07:56:00.743Z,40.70
2018-12-17T07:57:00.879Z,39.80
2018-12-17T07:58:01.008Z,37.10
2018-12-17T07:59:01.141Z,41.40
2018-12-17T08:00:01.270Z,37.70
2018-12-17T08:01:01.401Z,40.20
2018-12-17T08:02:01.532Z,40.10
2018-12-17T08:03:01.663Z,39.90
2018-12-17T08:04:01.793Z,42.50
2018-12-17T08:05:01.918Z,40.00
2018-12-17T08:06:02.045Z,40.50
2018-12-17T08:07:02.176Z,38.70
2018-12-17T08:08:02.301Z,40.10
2018-12-17T08:09:02.432Z,42.50
2018-12-17T08:10:02.566Z,44.40
2018-12-17T08:11:02.688Z,41.10
2018-12-17T08:12:02.819Z,41.50
2018-12-17T08:13:02.945Z,37.40
2018-12-17T08:14:03.080Z,44.20
2018-12-17T08:15:03.209Z,44.50
2018-12-17T08:16:03.342Z,41.20
2018-12-17T08:17:04.049Z,45.10
2018-12-17T08:18:03.589Z,43.10
2018-12-17T08:19:03.714Z,43.40
2018-12-17T08:20:03.845Z,40.60
2018-12-17T08:21:03.974Z,40.90
2018-12-17T08:22:04.099Z,42.90
2018-12-17T08:23:04.224Z,38.80
2018-12-17T08:24:04.360Z,38.20
2018-12-17T08:25:04.484Z,40.40
2018-12-17T08:26:04.609Z,42.20
2018-12-17T08:27:04.737Z,40.30
2018-12-17T08:28:04.868Z,43.10
2018-12-17T08:29:05.071Z,40.50
2018-12-17T08:30:05.147Z,42.50
2018-12-17T08:31:05.283Z,42.10
2018-12-17T08:32:05.407Z,36.70
2018-12-17T08:33:05.542Z,40.50
2018-12-17T08:34:05.666Z,40.20
2018-12-17T08:35:05.795Z,39.80
2018-12-17T08:36:05.926Z,43.00
2018-12-17T08:37:06.047Z,47.80
2018-12-17T08:38:06.190Z,46.40
2018-12-17T08:39:06.330Z,48.60
2018-12-17T08:40:06.457Z,44.00
2018-12-17T08:41:06.587Z,41.10
2018-12-17T08:42:06.733Z,43.70
2018-12-17T08:43:06.886Z,42.70
2018-12-17T08:44:07.005Z,37.80
2018-12-17T08:45:07.138Z,40.30
2018-12-17T08:46:07.281Z,38.00
2018-12-17T08:47:07.922Z,39.20
2018-12-17T08:48:07.553Z,38.90
2018-12-17T08:49:07.677Z,38.00
2018-12-17T08:50:07.812Z,40.80
2018-12-17T08:51:07.934Z,42.80
2018-12-17T08:52:08.061Z,40.60
2018-12-17T08:53:08.188Z,41.70
2018-12-17T08:54:08.317Z,43.10
2018-12-17T08:55:08.447Z,40.10
2018-12-17T08:56:08.576Z,41.00
2018-12-17T08:57:08.711Z,36.70
2018-12-17T08:58:08.861Z,36.00
2018-12-17T08:59:09.029Z,35.50
2018-12-17T09:00:11.223Z,35.10
2018-12-17T09:01:09.335Z,31.80
2018-12-17T09:02:09.488Z,30.80
2018-12-17T09:03:09.671Z,29.00
2018-12-17T09:04:09.682Z,31.70
2018-12-17T09:05:09.818Z,30.80
2018-12-17T09:06:09.966Z,28.50
2018-12-17T09:07:12.577Z,29.60
2018-12-17T09:08:10.214Z,34.00
2018-12-17T09:09:10.341Z,28.10
2018-12-17T09:10:10.479Z,29.90
2018-12-17T09:11:10.602Z,30.30
2018-12-17T09:12:10.745Z,29.90
2018-12-17T09:13:10.870Z,34.20
2018-12-17T09:14:11.008Z,30.90
2018-12-17T09:15:11.134Z,31.40
2018-12-17T09:16:11.264Z,30.30
2018-12-17T09:17:11.395Z,30.20
2018-12-17T09:18:11.545Z,31.50
2018-12-17T09:19:26.370Z,30.80
2018-12-17T09:20:11.736Z,28.30
2018-12-17T09:21:11.866Z,30.30
2018-12-17T09:22:12.003Z,29.80
2018-12-17T09:23:12.158Z,29.00
2018-12-17T09:24:12.287Z,28.60
2018-12-17T09:25:12.411Z,29.50
2018-12-17T09:26:12.567Z,30.60
2018-12-17T09:27:49.014Z,28.00
2018-12-17T09:28:12.752Z,30.70
2018-12-17T09:29:12.892Z,27.70
2018-12-17T09:30:18.239Z,35.00
2018-12-17T09:31:13.177Z,28.90
2018-12-17T09:32:13.302Z,27.90
2018-12-17T09:33:13.436Z,30.50
2018-12-17T09:34:13.610Z,29.00
2018-12-17T09:36:46.181Z,32.80
2018-12-17T09:37:46.310Z,30.50
2018-12-17T09:38:46.439Z,26.00
2018-12-17T09:39:46.606Z,30.10
2018-12-17T09:40:46.730Z,28.10
2018-12-17T09:41:46.860Z,29.80
2018-12-17T09:42:46.989Z,28.00
2018-12-17T09:43:47.129Z,25.80
2018-12-17T09:44:47.249Z,26.70
2018-12-17T09:45:47.385Z,28.00
2018-12-17T09:46:47.516Z,27.90
2018-12-17T09:47:47.647Z,27.00
2018-12-17T09:48:47.779Z,26.60
2018-12-17T09:49:47.930Z,25.60
2018-12-17T09:50:48.071Z,25.00
2018-12-17T09:51:48.224Z,23.70
2018-12-17T09:52:48.344Z,21.60
2018-12-17T09:53:48.534Z,21.90
2018-12-17T09:54:48.610Z,22.10
2018-12-17T09:55:48.753Z,22.50
2018-12-17T09:56:48.878Z,21.60
2018-12-17T09:57:49.013Z,21.30
2018-12-17T09:58:49.142Z,20.20
2018-12-17T09:59:49.298Z,20.20
2018-12-17T10:00:49.414Z,23.50
2018-12-17T10:01:49.539Z,20.20
2018-12-17T10:02:49.669Z,20.70
2018-12-17T10:03:49.814Z,19.70
2018-12-17T10:04:49.941Z,21.40
2018-12-17T10:05:50.070Z,20.30
2018-12-17T10:06:50.196Z,22.10
2018-12-17T10:07:50.351Z,24.20
2018-12-17T10:08:50.467Z,27.20
2018-12-17T10:09:50.597Z,23.60
2018-12-17T10:10:50.712Z,22.70
2018-12-17T10:11:50.889Z,23.70
2018-12-17T10:12:51.013Z,24.30
2018-12-17T10:13:51.142Z,23.10
2018-12-17T10:14:51.275Z,23.20
2018-12-17T10:15:51.477Z,22.60
2018-12-17T10:16:51.479Z,23.80
2018-12-17T10:17:51.614Z,23.70
2018-12-17T10:18:51.739Z,24.10
2018-12-17T10:19:51.895Z,25.50
2018-12-17T10:20:52.022Z,24.30
2018-12-17T10:21:52.173Z,23.70
2018-12-17T10:22:52.281Z,25.10
2018-12-17T10:23:52.416Z,28.40
2018-12-17T10:24:52.602Z,25.60
2018-12-17T10:25:52.735Z,30.60
2018-12-17T10:26:52.863Z,24.80
2018-12-17T10:27:53.016Z,29.40
2018-12-17T10:28:53.140Z,24.40
2018-12-17T10:29:53.273Z,22.40
2018-12-17T10:30:53.403Z,21.50
2018-12-17T10:31:53.541Z,22.60
2018-12-17T10:32:53.665Z,21.20
2018-12-17T10:35:26.402Z,21.80
2018-12-17T10:36:26.539Z,23.40
2018-12-17T10:37:26.680Z,23.50
2018-12-17T10:38:26.803Z,19.70
2018-12-17T10:39:26.938Z,18.80
2018-12-17T10:40:27.105Z,18.30
2018-12-17T10:41:27.207Z,16.90
2018-12-17T10:42:27.342Z,18.30
2018-12-17T10:43:27.470Z,16.60
2018-12-17T10:44:28.117Z,17.00
2018-12-17T10:45:27.756Z,16.60
2018-12-17T10:46:27.883Z,16.20
2018-12-17T10:47:28.005Z,16.20
2018-12-17T10:48:28.149Z,16.90
2018-12-17T10:49:28.274Z,16.50
2018-12-17T10:50:29.398Z,16.00
2018-12-17T10:51:28.537Z,16.90
2018-12-17T10:52:28.676Z,15.40
2018-12-17T10:53:28.878Z,16.60
2018-12-17T10:54:28.926Z,17.80
2018-12-17T10:55:29.061Z,17.30
2018-12-17T10:56:29.263Z,17.60
2018-12-17T10:57:29.268Z,16.70
2018-12-17T10:58:29.399Z,17.00
2018-12-17T10:59:29.553Z,17.90
2018-12-17T11:00:29.703Z,16.10
2018-12-17T11:01:29.831Z,17.10
2018-12-17T11:02:29.963Z,17.00
2018-12-17T11:03:30.099Z,17.90
2018-12-17T11:04:30.231Z,17.50
2018-12-17T11:05:30.361Z,18.80
2018-12-17T11:06:30.487Z,17.90
2018-12-17T11:07:30.637Z,18.00
2018-12-17T11:08:30.876Z,16.60
2018-12-17T11:09:30.880Z,19.30
2018-12-17T11:10:31.009Z,19.50
2018-12-17T11:11:31.168Z,19.30
2018-12-17T11:12:31.290Z,18.40
2018-12-17T11:13:31.410Z,17.00
2018-12-17T11:14:31.587Z,17.00
2018-12-17T11:15:31.606Z,16.10
2018-12-17T11:16:31.739Z,17.00
2018-12-17T11:17:31.873Z,16.40
2018-12-17T11:18:31.998Z,21.70
2018-12-17T11:19:32.129Z,23.90
2018-12-17T11:20:32.250Z,27.50
2018-12-17T11:21:32.384Z,21.80
2018-12-17T11:22:32.505Z,16.40
2018-12-17T11:23:32.639Z,21.90
2018-12-17T11:24:32.766Z,22.90
2018-12-17T11:25:32.893Z,18.40
2018-12-17T11:26:33.018Z,18.10
2018-12-17T11:27:33.149Z,21.30
2018-12-17T11:28:33.292Z,21.00
2018-12-17T11:29:33.414Z,15.40
2018-12-17T11:30:33.540Z,18.70
2018-12-17T11:31:33.672Z,18.30
2018-12-17T11:32:33.797Z,18.50
2018-12-17T11:33:33.945Z,25.00
2018-12-17T11:34:34.071Z,19.00
2018-12-17T11:35:34.218Z,23.30
2018-12-17T11:36:34.349Z,25.80
2018-12-17T11:37:34.489Z,29.10
2018-12-17T11:38:34.634Z,25.10
2018-12-17T11:39:34.766Z,17.70
2018-12-17T11:40:34.919Z,23.40
2018-12-17T11:41:35.109Z,25.60
2018-12-17T11:42:35.162Z,27.60
2018-12-17T11:43:35.297Z,16.00
2018-12-17T11:44:35.457Z,22.20
2018-12-17T11:45:35.575Z,15.20
2018-12-17T11:46:35.700Z,32.30
2018-12-17T11:47:35.829Z,21.80
2018-12-17T11:48:35.985Z,24.90
2018-12-17T11:49:36.122Z,17.70
2018-12-17T11:50:36.247Z,21.50
2018-12-17T11:51:36.402Z,32.50
2018-12-17T11:52:36.602Z,24.90
2018-12-17T11:53:36.603Z,24.00
2018-12-17T11:54:36.734Z,24.60
2018-12-17T11:55:36.891Z,32.00
2018-12-17T11:56:37.015Z,33.40
2018-12-17T11:57:37.147Z,26.30
2018-12-17T11:58:37.275Z,22.80
2018-12-17T11:59:37.423Z,26.40
2018-12-17T12:00:37.548Z,23.20
2018-12-17T12:01:37.673Z,20.80
2018-12-17T12:02:37.813Z,16.80
2018-12-17T12:03:37.937Z,23.40
2018-12-17T12:04:38.066Z,18.00
2018-12-17T12:05:38.196Z,19.20
2018-12-17T12:06:38.333Z,19.40
2018-12-17T12:07:38.463Z,20.70
2018-12-17T12:08:38.589Z,17.30
2018-12-17T12:09:38.713Z,19.30
2018-12-17T12:10:38.846Z,20.40
2018-12-17T12:11:38.969Z,24.20
2018-12-17T12:12:39.104Z,23.20
2018-12-17T12:13:39.240Z,18.70
2018-12-17T12:14:39.384Z,14.90
2018-12-17T12:15:39.509Z,18.90
2018-12-17T12:16:39.636Z,25.80
2018-12-17T12:17:39.765Z,20.80
2018-12-17T12:18:39.895Z,20.40
2018-12-17T12:19:40.028Z,20.70
2018-12-17T12:20:40.161Z,23.80
2018-12-17T12:21:40.292Z,20.10
2018-12-17T12:22:40.415Z,17.90
2018-12-17T12:23:40.550Z,21.50
2018-12-17T12:24:41.484Z,22.60
2018-12-17T12:25:40.756Z,17.40
2018-12-17T12:26:40.887Z,16.90
2018-12-17T12:27:41.017Z,18.20
2018-12-17T12:28:41.144Z,19.00
2018-12-17T12:29:41.312Z,17.00
2018-12-17T12:30:41.439Z,26.70
2018-12-17T12:31:42.524Z,20.10
2018-12-17T12:32:41.690Z,23.40
2018-12-17T12:33:41.808Z,25.50
2018-12-17T12:34:41.937Z,24.60
2018-12-17T12:35:42.063Z,20.90
2018-12-17T12:36:42.206Z,22.10
2018-12-17T12:37:42.332Z,17.80
2018-12-17T12:38:42.453Z,21.50
2018-12-17T12:39:42.580Z,21.40
2018-12-17T12:40:42.717Z,21.30
2018-12-17T12:41:42.841Z,19.90
2018-12-17T12:42:42.973Z,18.80
2018-12-17T12:43:43.103Z,20.70
2018-12-17T12:44:43.258Z,18.00
2018-12-17T12:45:43.380Z,18.00
2018-12-17T12:46:43.517Z,18.30
2018-12-17T12:47:43.648Z,20.40
2018-12-17T12:48:43.783Z,18.10
2018-12-17T12:49:43.926Z,17.90
2018-12-17T12:50:44.043Z,19.90
2018-12-17T12:51:44.188Z,27.80
2018-12-17T12:52:44.321Z,24.10
2018-12-17T12:53:44.461Z,17.90
2018-12-17T12:54:44.584Z,23.40
2018-12-17T12:55:44.715Z,16.30
2018-12-17T12:56:44.847Z,16.00
2018-12-17T12:57:44.979Z,19.20
2018-12-17T12:58:45.108Z,16.20
2018-12-17T12:59:45.229Z,18.50
2018-12-17T13:00:45.360Z,14.00
2018-12-17T13:01:45.484Z,15.60